Time;durP1;ratioP1;P1;durP2;ratioP2;P2;SDS_P1;SDS_P2;PMS_P1;PMS_P2;Temp;Humidity;BMP_temperature;BMP_pressure;BME280_temperature;BME280_humidity;BME280_pressure;Samples;Min_cycle;Max_cycle;Signal;HPM_P1;HPM_P2
2022/10/27 00:00:34;;;;;;;6.17;4.77;;;;;;;13.51;100.00;154830.13;5048785;28;20998;-76
2022/10/27 00:03:19;;;;;;;11.37;5.40;;;;;;;13.48;100.00;154821.03;5053581;28;20569;-76
2022/10/27 00:06:07;;;;;;;9.87;5.23;;;;;;;13.50;100.00;154827.56;5034838;28;20925;-76
2022/10/27 00:08:53;;;;;;;7.93;5.23;;;;;;;13.45;100.00;154814.53;5042767;28;20938;-76
2022/10/27 00:11:39;;;;;;;7.00;5.80;;;;;;;13.45;100.00;154813.28;5055241;28;20391;-76
2022/10/27 00:14:25;;;;;;;8.70;6.23;;;;;;;13.39;100.00;154800.31;5054617;28;20465;-76
2022/10/27 00:17:11;;;;;;;8.90;5.53;;;;;;;13.32;100.00;154782.13;5053120;28;20471;-76
2022/10/27 00:19:56;;;;;;;8.67;5.87;;;;;;;13.23;100.00;154758.78;5054299;28;20905;-76
2022/10/27 00:22:41;;;;;;;11.03;4.97;;;;;;;13.19;100.00;154748.38;5040814;28;20774;-76
2022/10/27 00:25:27;;;;;;;8.70;5.23;;;;;;;13.19;100.00;154748.38;5034388;28;20518;-76
2022/10/27 00:28:13;;;;;;;8.27;5.73;;;;;;;13.18;100.00;154745.81;5053058;28;20520;-76
2022/10/27 00:31:00;;;;;;;8.80;5.63;;;;;;;13.15;100.00;154738.03;5054055;28;20956;-76
2022/10/27 00:33:47;;;;;;;7.23;5.83;;;;;;;13.12;100.00;154730.22;5055353;28;20480;-76
2022/10/27 00:36:32;;;;;;;8.97;6.93;;;;;;;13.09;100.00;154722.44;5052923;28;20952;-76
2022/10/27 00:39:18;;;;;;;8.47;5.63;;;;;;;13.07;100.00;154715.97;5036124;28;20432;-76
2022/10/27 00:42:03;;;;;;;13.97;6.20;;;;;;;13.02;100.00;154704.25;5029523;28;20434;-76
2022/10/27 00:44:50;;;;;;;12.43;7.10;;;;;;;12.95;100.00;154686.06;5040617;28;20553;-76
2022/10/27 00:47:36;;;;;;;9.33;7.00;;;;;;;12.95;100.00;154684.75;5054587;28;20516;-76
2022/10/27 00:50:23;;;;;;;12.93;8.03;;;;;;;12.91;100.00;154675.69;5053947;28;20461;-76
2022/10/27 00:53:09;;;;;;;12.53;8.50;;;;;;;12.91;100.00;154674.41;5052435;28;20434;-76
2022/10/27 00:55:54;;;;;;;9.40;7.10;;;;;;;12.89;100.00;154670.53;5039138;28;20441;-76
2022/10/27 00:58:40;;;;;;;9.00;7.70;;;;;;;12.85;100.00;154660.13;5034426;28;20475;-76
2022/10/27 01:01:28;;;;;;;7.90;7.13;;;;;;;12.84;100.00;154657.50;5033587;28;20407;-76
2022/10/27 01:04:14;;;;;;;7.80;6.80;;;;;;;12.77;100.00;154640.66;5051076;28;20536;-76
2022/10/27 01:07:00;;;;;;;15.40;7.67;;;;;;;12.74;100.00;154632.88;5012844;28;20427;-76
2022/10/27 01:09:46;;;;;;;9.90;7.47;;;;;;;12.68;100.00;154617.31;5012401;28;20490;-76
2022/10/27 01:12:32;;;;;;;9.73;7.60;;;;;;;12.62;100.00;154601.78;5024473;28;20606;-75
2022/10/27 01:15:18;;;;;;;12.53;7.63;;;;;;;12.59;100.00;154594.00;5032288;28;20929;-76
2022/10/27 01:18:09;;;;;;;10.70;7.10;;;;;;;12.54;100.00;154579.72;5028169;28;20455;-76
2022/10/27 01:21:09;;;;;;;9.53;8.07;;;;;;;12.47;100.00;154561.59;5020262;28;20493;-76
2022/10/27 01:24:12;;;;;;;10.90;8.07;;;;;;;12.43;100.00;154551.19;5017624;28;20557;-76
2022/10/27 01:26:59;;;;;;;10.13;7.07;;;;;;;12.40;100.00;154544.69;5013843;28;20555;-76
2022/10/27 01:30:01;;;;;;;8.53;7.63;;;;;;;12.39;100.00;154540.84;5031771;28;20507;-76
2022/10/27 01:32:55;;;;;;;9.83;6.90;;;;;;;12.36;100.00;154533.03;5030746;28;20443;-76
2022/10/27 01:35:46;;;;;;;9.97;7.40;;;;;;;12.35;100.00;154531.75;5033507;28;20403;-76
2022/10/27 01:38:33;;;;;;;9.90;7.13;;;;;;;12.31;100.00;154520.09;5035857;28;20470;-76
2022/10/27 01:41:22;;;;;;;13.37;7.40;;;;;;;12.30;100.00;154517.47;5036376;28;20511;-75
2022/10/27 01:44:11;;;;;;;8.93;7.60;;;;;;;12.35;100.00;154530.44;5033984;28;20538;-75
2022/10/27 01:46:57;;;;;;;11.83;8.37;;;;;;;12.39;100.00;154542.09;5032870;28;20446;-75
2022/10/27 01:49:43;;;;;;;9.97;7.77;;;;;;;12.36;100.00;154533.03;5033376;28;20427;-76
2022/10/27 01:52:46;;;;;;;12.53;7.37;;;;;;;12.33;100.00;154525.25;5033658;28;20443;-76
2022/10/27 01:55:52;;;;;;;9.60;7.30;;;;;;;12.31;100.00;154520.09;5032986;28;20790;-75
2022/10/27 01:59:04;;;;;;;10.20;7.77;;;;;;;12.27;100.00;154509.69;5033487;28;20475;-75
2022/10/27 02:01:58;;;;;;;10.13;7.20;;;;;;;12.26;100.00;154508.38;5033166;28;20430;-75
2022/10/27 02:04:52;;;;;;;8.97;8.03;;;;;;;12.25;100.00;154504.50;5017649;28;20415;-77
2022/10/27 02:07:58;;;;;;;11.00;7.53;;;;;;;12.24;100.00;154503.19;5052053;28;20772;-75
2022/10/27 02:10:47;;;;;;;9.57;7.67;;;;;;;12.21;100.00;154495.41;5052040;28;20458;-75
2022/10/27 02:13:35;;;;;;;8.87;7.97;;;;;;;12.20;100.00;154494.13;5053400;28;20430;-75
2022/10/27 02:16:22;;;;;;;11.77;9.20;;;;;;;12.18;100.00;154488.94;5039801;28;20661;-77
2022/10/27 02:19:11;;;;;;;10.70;8.80;;;;;;;12.18;100.00;154488.94;5032934;28;20454;-77
2022/10/27 02:21:59;;;;;;;11.37;7.43;;;;;;;12.17;100.00;154485.06;5019576;28;20430;-89
2022/10/27 02:24:44;;;;;;;10.37;7.60;;;;;;;12.15;100.00;154479.91;5037214;28;20517;-89
2022/10/27 02:27:34;;;;;;;10.90;8.40;;;;;;;12.11;100.00;154469.50;5032468;28;20432;-89
2022/10/27 02:30:20;;;;;;;12.90;7.87;;;;;;;12.08;100.00;154461.72;5032436;28;20451;-89
2022/10/27 02:33:06;;;;;;;12.97;8.07;;;;;;;12.03;100.00;154448.75;5038405;28;20524;-89
2022/10/27 02:35:52;;;;;;;9.67;8.67;;;;;;;12.04;100.00;154452.69;5036628;28;20438;-89
2022/10/27 02:38:38;;;;;;;10.00;8.20;;;;;;;12.04;100.00;154451.38;5032460;28;20786;-90
2022/10/27 02:41:24;;;;;;;11.57;7.97;;;;;;;11.98;100.00;154435.81;5031089;28;20513;-89
2022/10/27 02:44:09;;;;;;;9.00;8.10;;;;;;;11.92;100.00;154420.22;5053003;28;20449;-90
2022/10/27 02:46:54;;;;;;;12.50;8.80;;;;;;;11.89;100.00;154413.75;5052262;28;20410;-89
2022/10/27 02:49:40;;;;;;;10.83;8.47;;;;;;;11.87;100.00;154408.56;5052499;28;20461;-90
2022/10/27 02:52:25;;;;;;;10.03;8.27;;;;;;;11.87;100.00;154408.56;5050633;28;20450;-89
2022/10/27 02:55:12;;;;;;;13.50;7.77;;;;;;;11.90;100.00;154416.38;5041107;28;20431;-88
2022/10/27 02:57:57;;;;;;;10.47;8.60;;;;;;;11.89;100.00;154413.75;5028798;28;20471;-87
2022/10/27 03:00:43;;;;;;;12.53;8.63;;;;;;;11.93;100.00;154424.16;5048129;28;20489;-88
2022/10/27 03:03:28;;;;;;;11.50;8.30;;;;;;;11.92;100.00;154421.53;5060564;28;20433;-89
2022/10/27 03:06:13;;;;;;;12.93;7.90;;;;;;;11.88;100.00;154411.19;5049572;28;20530;-88
2022/10/27 03:08:59;;;;;;;9.73;7.03;;;;;;;11.86;100.00;154405.97;5048671;28;20461;-88
2022/10/27 03:11:45;;;;;;;10.00;7.33;;;;;;;11.84;100.00;154399.50;5052987;28;20527;-88
2022/10/27 03:14:31;;;;;;;10.97;7.37;;;;;;;11.82;100.00;154394.31;5045171;28;20494;-89
2022/10/27 03:17:16;;;;;;;9.30;7.43;;;;;;;11.81;100.00;154391.75;5044376;28;20884;-88
2022/10/27 03:20:02;;;;;;;9.20;7.23;;;;;;;11.78;100.00;154385.22;5019335;28;20531;-88
2022/10/27 03:22:47;;;;;;;9.43;7.00;;;;;;;11.75;100.00;154376.19;5026915;28;20496;-88
2022/10/27 03:25:35;;;;;;;12.13;7.93;;;;;;;11.75;100.00;154377.50;5039153;28;20458;-87
2022/10/27 03:28:22;;;;;;;8.57;7.17;;;;;;;11.74;100.00;154374.88;5043078;28;20808;-89
2022/10/27 03:31:08;;;;;;;8.27;7.00;;;;;;;11.70;100.00;154364.53;5039950;28;20828;-90
2022/10/27 03:33:53;;;;;;;12.00;7.80;;;;;;;11.70;100.00;154364.53;5037742;28;20518;-89
2022/10/27 03:36:38;;;;;;;7.77;6.87;;;;;;;11.67;100.00;154356.72;5036214;28;20467;-90
2022/10/27 03:39:24;;;;;;;9.00;6.97;;;;;;;11.66;100.00;154354.09;5038196;28;20434;-90
2022/10/27 03:42:09;;;;;;;12.03;7.73;;;;;;;11.63;100.00;154347.63;5035532;28;20581;-90
2022/10/27 03:44:56;;;;;;;11.50;9.27;;;;;;;11.65;100.00;154351.50;5036960;28;20501;-90
2022/10/27 03:47:41;;;;;;;11.90;8.23;;;;;;;11.64;100.00;154348.94;5038566;28;20494;-89
2022/10/27 03:50:27;;;;;;;10.30;7.80;;;;;;;11.62;100.00;154343.75;5035600;28;20408;-89
2022/10/27 03:53:12;;;;;;;8.03;6.97;;;;;;;11.65;100.00;154351.50;5036549;28;20474;-90
2022/10/27 03:55:58;;;;;;;11.17;8.03;;;;;;;11.62;100.00;154343.75;5054513;28;20508;-89
2022/10/27 03:58:43;;;;;;;11.20;8.07;;;;;;;11.63;100.00;154346.31;5056453;28;20465;-89
2022/10/27 04:01:32;;;;;;;12.20;7.57;;;;;;;11.65;100.00;154351.50;5016821;28;20397;-87
2022/10/27 04:04:18;;;;;;;9.37;6.60;;;;;;;11.73;100.00;154371.03;5017111;28;20470;-90
2022/10/27 04:07:03;;;;;;;11.20;7.77;;;;;;;11.77;100.00;154382.66;5014149;28;20432;-77
2022/10/27 04:09:48;;;;;;;9.03;7.57;;;;;;;11.81;100.00;154391.75;5016113;28;20444;-77
2022/10/27 04:12:34;;;;;;;11.60;7.80;;;;;;;11.84;100.00;154400.78;5014764;28;20522;-77
2022/10/27 04:15:20;;;;;;;15.37;8.17;;;;;;;11.85;100.00;154403.41;5031744;28;20946;-77
2022/10/27 04:18:07;;;;;;;11.67;8.57;;;;;;;11.85;100.00;154403.41;5043124;28;20457;-77
2022/10/27 04:20:52;;;;;;;10.07;8.20;;;;;;;11.84;100.00;154399.50;5020126;28;20454;-77
2022/10/27 04:23:38;;;;;;;9.27;7.60;;;;;;;11.78;100.00;154383.97;5035276;28;20434;-77
2022/10/27 04:26:23;;;;;;;11.10;8.57;;;;;;;11.73;100.00;154371.03;5037244;28;20589;-77
2022/10/27 04:29:08;;;;;;;10.67;9.00;;;;;;;11.69;100.00;154361.94;5054642;28;20414;-77
2022/10/27 04:31:54;;;;;;;9.23;7.83;;;;;;;11.64;100.00;154348.94;5053957;28;20957;-77
2022/10/27 04:34:41;;;;;;;14.47;8.57;;;;;;;11.62;100.00;154343.75;5053666;28;20410;-77
2022/10/27 04:37:26;;;;;;;9.03;8.00;;;;;;;11.61;100.00;154341.16;5043353;28;20427;-77
2022/10/27 04:40:12;;;;;;;10.27;8.37;;;;;;;11.57;100.00;154330.75;5034782;28;20427;-77
2022/10/27 04:42:57;;;;;;;12.30;8.13;;;;;;;11.54;100.00;154324.28;5033976;28;20426;-76
2022/10/27 04:45:43;;;;;;;13.97;10.60;;;;;;;11.58;100.00;154333.38;5047418;28;20461;-77
2022/10/27 04:48:28;;;;;;;10.80;9.20;;;;;;;11.56;100.00;154328.19;5054397;28;20426;-77
2022/10/27 04:51:15;;;;;;;14.03;9.40;;;;;;;11.56;100.00;154328.19;5055767;28;20600;-89
2022/10/27 04:54:00;;;;;;;11.70;8.80;;;;;;;11.54;100.00;154323.03;5045947;28;20508;-90
2022/10/27 04:56:46;;;;;;;10.37;8.80;;;;;;;11.52;100.00;154317.81;5035919;28;20418;-90
2022/10/27 04:59:31;;;;;;;11.37;8.50;;;;;;;11.50;100.00;154312.63;5037461;28;20509;-89
2022/10/27 05:02:19;;;;;;;11.10;9.40;;;;;;;11.48;100.00;154307.47;5037793;28;20895;-90
2022/10/27 05:05:04;;;;;;;10.90;9.47;;;;;;;11.50;100.00;154313.94;5055330;28;20427;-89
2022/10/27 05:07:55;;;;;;;11.50;9.10;;;;;;;11.49;100.00;154310.06;5054819;28;20450;-90
2022/10/27 05:10:40;;;;;;;14.37;11.00;;;;;;;11.50;100.00;154312.63;5041187;28;20439;-89
2022/10/27 05:13:26;;;;;;;11.87;9.57;;;;;;;11.48;100.00;154307.47;5034093;28;20463;-90
2022/10/27 05:16:11;;;;;;;15.23;9.30;;;;;;;11.44;100.00;154297.06;5033522;28;20399;-89
2022/10/27 05:18:56;;;;;;;11.67;9.27;;;;;;;11.42;100.00;154291.91;5033280;28;20446;-90
2022/10/27 05:21:42;;;;;;;16.60;10.50;;;;;;;11.41;100.00;154290.59;5039636;28;20480;-90
2022/10/27 05:24:29;;;;;;;12.40;10.27;;;;;;;11.36;100.00;154276.34;5020184;28;20428;-90
2022/10/27 05:27:14;;;;;;;10.80;9.47;;;;;;;11.33;100.00;154269.84;5023092;28;20439;-90
2022/10/27 05:29:59;;;;;;;10.60;9.50;;;;;;;11.36;100.00;154277.63;5032101;28;20807;-89
2022/10/27 05:32:45;;;;;;;11.33;8.77;;;;;;;11.31;100.00;154263.38;5033144;28;20598;-90
2022/10/27 05:35:31;;;;;;;9.57;8.57;;;;;;;11.24;100.00;154246.56;5033968;28;20946;-90
2022/10/27 05:38:16;;;;;;;11.40;8.90;;;;;;;11.20;100.00;154234.94;5032908;28;20439;-90
2022/10/27 05:41:04;;;;;;;9.70;8.70;;;;;;;11.15;100.00;154221.94;5038465;28;20465;-77
2022/10/27 05:43:49;;;;;;;10.53;7.80;;;;;;;11.15;100.00;154221.94;5031201;28;20490;-77
2022/10/27 05:46:34;;;;;;;10.10;9.00;;;;;;;11.16;100.00;154224.53;5031509;28;20517;-77
2022/10/27 05:49:20;;;;;;;12.47;8.80;;;;;;;11.19;100.00;154232.31;5047469;28;20952;-77
2022/10/27 05:52:05;;;;;;;12.33;8.80;;;;;;;11.20;100.00;154234.94;5051938;28;20612;-76
2022/10/27 05:54:50;;;;;;;11.10;9.60;;;;;;;11.22;100.00;154240.09;5052543;28;20426;-77
2022/10/27 05:57:37;;;;;;;15.90;8.50;;;;;;;11.18;100.00;154229.72;5045226;28;20467;-77
2022/10/27 06:00:23;;;;;;;13.63;10.20;;;;;;;11.18;100.00;154229.72;5032460;28;20431;-77
2022/10/27 06:03:18;;;;;;;12.40;9.93;;;;;;;11.20;100.00;154234.94;5031029;28;20435;-77
2022/10/27 06:06:04;;;;;;;17.90;9.50;;;;;;;11.19;100.00;154232.31;5036229;28;20800;-76
2022/10/27 06:08:49;;;;;;;11.70;8.63;;;;;;;11.18;100.00;154229.72;5038468;28;20442;-76
2022/10/27 06:11:34;;;;;;;12.33;8.70;;;;;;;11.21;100.00;154237.47;5030085;28;20984;-77
2022/10/27 06:14:21;;;;;;;12.57;9.57;;;;;;;11.26;100.00;154250.44;5030521;28;20403;-77
2022/10/27 06:17:07;;;;;;;11.17;9.77;;;;;;;11.29;100.00;154259.53;5011366;28;20436;-77
2022/10/27 06:19:52;;;;;;;10.93;9.40;;;;;;;11.32;100.00;154267.31;5030516;28;21029;-77
2022/10/27 06:22:38;;;;;;;13.20;10.80;;;;;;;11.34;100.00;154271.16;5030621;28;20778;-77
2022/10/27 06:25:23;;;;;;;14.10;9.03;;;;;;;11.41;100.00;154289.34;5046538;28;20512;-77
2022/10/27 06:28:08;;;;;;;12.40;10.30;;;;;;;11.47;100.00;154304.84;5027227;28;20522;-77
2022/10/27 06:30:55;;;;;;;9.87;8.90;;;;;;;11.51;100.00;154315.25;5028593;28;20525;-77
2022/10/27 06:33:40;;;;;;;10.10;9.10;;;;;;;11.62;100.00;154343.75;5030699;28;20510;-77
2022/10/27 06:36:26;;;;;;;10.63;8.80;;;;;;;11.72;100.00;154369.72;5031146;28;20435;-77
2022/10/27 06:39:11;;;;;;;11.80;7.97;;;;;;;11.90;100.00;154416.38;5031802;28;20481;-77
2022/10/27 06:41:57;;;;;;;10.87;9.10;;;;;;;12.08;100.00;154463.03;5034918;28;20449;-77
2022/10/27 06:44:43;;;;;;;8.73;7.23;;;;;;;12.26;100.00;154508.38;5028132;28;20570;-77
2022/10/27 06:47:30;;;;;;;11.93;8.37;;;;;;;12.52;100.00;154575.78;5025482;28;20912;-77
2022/10/27 06:50:15;;;;;;;11.70;8.30;;;;;;;12.73;100.00;154630.28;5032835;28;20751;-77
2022/10/27 06:53:01;;;;;;;9.40;7.60;;;;;;;12.94;100.00;154682.19;5035061;28;20834;-76
2022/10/27 06:55:46;;;;;;;8.97;8.07;;;;;;;13.21;100.00;154753.56;5030308;28;20447;-75
2022/10/27 06:58:34;;;;;;;8.63;7.47;;;;;;;13.31;100.00;154779.56;5030516;28;20483;-76
2022/10/27 07:01:19;;;;;;;8.50;7.70;;;;;;;13.48;100.00;154822.34;5032925;28;20972;-76
2022/10/27 07:04:06;;;;;;;10.00;7.93;;;;;;;13.66;100.00;154867.78;5032247;28;20582;-76
2022/10/27 07:06:51;;;;;;;7.97;7.00;;;;;;;13.77;100.00;154896.31;5032670;28;20546;-76
2022/10/27 07:09:36;;;;;;;8.43;7.23;;;;;;;13.95;100.00;154943.09;5032536;28;20431;-76
2022/10/27 07:12:22;;;;;;;10.57;6.80;;;;;;;14.12;100.00;154987.19;5032086;28;20478;-76
2022/10/27 07:15:08;;;;;;;7.30;6.60;;;;;;;14.37;100.00;155050.88;5031401;28;20509;-76
2022/10/27 07:17:57;;;;;;;7.97;7.00;;;;;;;14.54;100.00;155096.31;5032233;28;20446;-76
2022/10/27 07:20:47;;;;;;;9.63;6.20;;;;;;;14.73;100.00;155143.09;5026397;28;20440;-76
2022/10/27 07:23:32;;;;;;;8.30;6.07;;;;;;;14.93;100.00;155195.06;5023914;28;20803;-76
2022/10/27 07:26:18;;;;;;;7.07;5.53;;;;;;;15.19;100.00;155262.63;5032137;28;20427;-77
2022/10/27 07:29:05;;;;;;;8.20;5.83;;;;;;;15.26;100.00;155280.81;5032348;28;20913;-77
2022/10/27 07:31:50;;;;;;;9.37;6.27;;;;;;;15.51;100.00;155344.56;5032534;28;20522;-77
2022/10/27 07:34:35;;;;;;;7.27;6.40;;;;;;;15.67;100.00;155386.16;5031584;28;20439;-77
2022/10/27 07:37:26;;;;;;;7.03;6.33;;;;;;;15.75;100.00;155408.22;5031967;28;20439;-77
2022/10/27 07:40:16;;;;;;;7.90;6.70;;;;;;;15.73;100.00;155403.03;5032355;28;20466;-77
2022/10/27 07:43:02;;;;;;;7.23;6.00;;;;;;;15.66;100.00;155384.84;5032144;28;20451;-77
2022/10/27 07:45:47;;;;;;;17.80;6.70;;;;;;;15.62;100.00;155374.41;5032461;28;20439;-77
2022/10/27 07:48:32;;;;;;;12.30;6.70;;;;;;;15.64;100.00;155378.34;5031692;28;20945;-77
2022/10/27 07:51:18;;;;;;;7.70;6.37;;;;;;;15.70;100.00;155395.22;5030730;28;20878;-77
2022/10/27 07:54:05;;;;;;;7.70;6.13;;;;;;;15.63;100.00;155375.72;5034100;28;20767;-77
2022/10/27 07:56:51;;;;;;;12.90;6.30;;;;;;;15.58;100.00;155364.03;5035868;28;20438;-77
2022/10/27 08:03:00;;;;;;;7.40;6.00;;;;;;;15.51;100.00;155345.88;4970415;27;20508;-77
2022/10/27 08:05:45;;;;;;;7.10;6.03;;;;;;;15.54;100.00;155353.63;4976306;28;20887;-76
2022/10/27 08:08:31;;;;;;;9.00;5.57;;;;;;;15.56;100.00;155358.84;4976889;28;20414;-76
2022/10/27 08:11:17;;;;;;;10.40;7.00;;;;;;;15.57;100.00;155361.44;4974539;28;20605;-77
2022/10/27 08:14:02;;;;;;;13.77;7.00;;;;;;;15.45;100.00;155328.91;4975557;28;20406;-77
2022/10/27 08:16:48;;;;;;;9.70;7.13;;;;;;;15.49;100.00;155339.38;4973377;28;20959;-77
2022/10/27 08:19:33;;;;;;;11.37;6.83;;;;;;;15.53;100.00;155349.75;4973414;28;20442;-76
2022/10/27 08:22:19;;;;;;;7.17;6.00;;;;;;;15.60;100.00;155369.22;4968289;28;20549;-78
2022/10/27 08:25:05;;;;;;;12.00;6.60;;;;;;;15.62;100.00;155374.41;4973482;28;21002;-78
2022/10/27 08:27:51;;;;;;;9.63;5.40;;;;;;;15.72;100.00;155400.47;4954746;29;20461;-78
2022/10/27 08:30:37;;;;;;;8.23;5.77;;;;;;;15.69;100.00;155391.34;4974000;28;20851;-78
2022/10/27 08:33:22;;;;;;;7.50;5.50;;;;;;;15.72;100.00;155400.47;4959940;28;20458;-78
2022/10/27 08:36:10;;;;;;;6.60;5.23;;;;;;;15.89;100.00;155443.31;4966438;28;20609;-78
2022/10/27 08:38:55;;;;;;;7.07;5.23;;;;;;;16.05;100.00;155484.94;4970815;28;20446;-78
2022/10/27 08:41:46;;;;;;;9.30;5.20;;;;;;;16.14;100.00;155507.06;4975221;28;20787;-78
2022/10/27 08:44:34;;;;;;;6.67;4.57;;;;;;;16.19;100.00;155521.38;4975984;28;20517;-78
2022/10/27 08:47:22;;;;;;;10.93;5.40;;;;;;;16.22;100.00;155527.84;4960178;28;20609;-79
2022/10/27 08:50:12;;;;;;;5.70;4.60;;;;;;;16.24;100.00;155533.06;4975034;28;20421;-76
2022/10/27 08:52:59;;;;;;;7.50;4.97;;;;;;;16.18;100.00;155517.44;4960713;28;20582;-78
2022/10/27 08:55:51;;;;;;;8.93;5.53;;;;;;;16.20;100.00;155522.66;4974773;28;20441;-78
2022/10/27 08:58:37;;;;;;;7.10;4.77;;;;;;;16.24;100.00;155533.06;4975709;28;21041;-76
2022/10/27 09:01:31;;;;;;;8.70;4.53;;;;;;;16.26;100.00;155538.25;4968230;28;20940;-76
2022/10/27 09:04:24;;;;;;;7.90;4.97;;;;;;;16.31;100.00;155551.25;4955097;28;20494;-78
2022/10/27 09:07:16;;;;;;;10.03;4.97;;;;;;;16.34;100.00;155559.06;4952555;29;20953;-78
2022/10/27 09:10:06;;;;;;;6.97;4.90;;;;;;;16.32;100.00;155553.84;4952897;29;20454;-78
2022/10/27 09:13:02;;;;;;;7.53;4.77;;;;;;;16.32;100.00;155555.16;4955926;29;20549;-78
2022/10/27 09:15:48;;;;;;;7.17;4.40;;;;;;;16.35;100.00;155562.97;4955947;29;20760;-78
2022/10/27 09:18:38;;;;;;;8.93;4.97;;;;;;;16.37;100.00;155566.84;4956024;28;20434;-78
2022/10/27 09:21:25;;;;;;;9.10;5.30;;;;;;;16.42;100.00;155579.88;4956268;29;20495;-79
2022/10/27 09:24:13;;;;;;;6.87;5.20;;;;;;;16.44;100.00;155586.38;4954908;28;20435;-78
2022/10/27 09:26:59;;;;;;;8.73;5.67;;;;;;;16.47;100.00;155592.88;4945161;28;20455;-79
2022/10/27 09:29:44;;;;;;;6.83;4.57;;;;;;;16.58;100.00;155621.53;4954795;29;20495;-78
2022/10/27 09:32:33;;;;;;;9.60;4.40;;;;;;;16.60;100.00;155626.72;4954696;28;20470;-78
2022/10/27 09:35:22;;;;;;;8.10;4.87;;;;;;;16.60;100.00;155626.72;4938077;29;20420;-79
2022/10/27 09:38:12;;;;;;;8.00;4.83;;;;;;;16.60;100.00;155626.72;4953335;28;20442;-78
2022/10/27 09:40:57;;;;;;;8.23;4.93;;;;;;;16.65;100.00;155638.47;4955303;29;20495;-79
2022/10/27 09:43:42;;;;;;;6.80;4.50;;;;;;;16.67;100.00;155643.66;4942543;29;20439;-78
2022/10/27 09:46:29;;;;;;;10.43;4.60;;;;;;;16.71;100.00;155655.34;4953782;28;20467;-78
2022/10/27 09:49:15;;;;;;;7.50;4.30;;;;;;;16.75;100.00;155665.78;4955262;29;20428;-79
2022/10/27 09:52:04;;;;;;;12.70;3.77;;;;;;;16.80;100.00;155678.78;4954321;29;20434;-79
2022/10/27 09:54:54;;;;;;;8.33;4.40;;;;;;;16.91;99.09;155706.13;4920694;28;20400;-78
2022/10/27 09:57:43;;;;;;;8.07;3.93;;;;;;;16.90;100.00;155704.81;4953844;28;20451;-79
2022/10/27 10:00:29;;;;;;;7.93;4.40;;;;;;;16.93;99.05;155712.63;4953755;29;20434;-78
2022/10/27 10:03:19;;;;;;;9.13;4.57;;;;;;;17.00;98.12;155730.81;4971993;28;20445;-78
2022/10/27 10:06:06;;;;;;;4.97;3.80;;;;;;;17.05;97.71;155743.81;4973649;28;21018;-78
2022/10/27 10:08:52;;;;;;;7.43;5.13;;;;;;;17.10;96.68;155755.56;4975142;28;20448;-78
2022/10/27 10:11:38;;;;;;;7.00;4.10;;;;;;;17.26;94.86;155795.91;4974193;28;20429;-78
2022/10/27 10:14:24;;;;;;;8.27;4.47;;;;;;;17.31;95.19;155808.91;4972807;28;21036;-78
2022/10/27 10:17:19;;;;;;;8.20;4.80;;;;;;;17.41;95.25;155836.25;4983361;28;20970;-78
2022/10/27 10:20:07;;;;;;;6.90;3.97;;;;;;;17.47;94.62;155850.56;4973840;28;20783;-78
2022/10/27 10:22:52;;;;;;;6.57;3.80;;;;;;;17.58;92.62;155879.22;4972832;28;20442;-78
2022/10/27 10:25:46;;;;;;;6.13;3.97;;;;;;;17.63;91.83;155893.53;4974792;28;20406;-78
2022/10/27 10:28:35;;;;;;;10.87;5.33;;;;;;;17.83;91.74;155943.03;4973706;28;20417;-78
2022/10/27 10:31:25;;;;;;;6.20;4.30;;;;;;;17.90;90.57;155962.56;4971838;28;20457;-78
2022/10/27 10:34:31;;;;;;;6.97;3.93;;;;;;;17.71;91.43;155913.13;4971778;28;20537;-78
2022/10/27 10:37:38;;;;;;;8.40;4.30;;;;;;;17.71;91.35;155911.81;4973237;28;20445;-78
2022/10/27 10:40:29;;;;;;;6.73;4.03;;;;;;;17.80;90.10;155935.22;4974203;28;20478;-78
2022/10/27 10:43:15;;;;;;;10.80;4.20;;;;;;;17.78;90.37;155931.31;4973942;28;20418;-78
2022/10/27 10:46:01;;;;;;;8.13;3.80;;;;;;;17.95;88.69;155974.31;4968729;28;21088;-78
2022/10/27 10:48:50;;;;;;;8.87;3.53;;;;;;;18.01;86.84;155991.22;4954512;28;20449;-78
2022/10/27 10:51:36;;;;;;;6.30;3.23;;;;;;;18.02;86.41;155992.53;4971590;28;20450;-78
2022/10/27 10:54:24;;;;;;;5.83;3.70;;;;;;;18.03;86.72;155996.41;4972715;28;20517;-78
2022/10/27 10:57:24;;;;;;;4.80;3.83;;;;;;;18.03;85.78;155996.41;4974446;28;20548;-77
2022/10/27 11:00:17;;;;;;;8.73;3.87;;;;;;;17.96;87.84;155976.88;4958550;28;20932;-78
2022/10/27 11:03:04;;;;;;;12.20;3.93;;;;;;;18.06;86.84;156004.22;4974589;28;20921;-78
2022/10/27 11:05:54;;;;;;;5.77;3.03;;;;;;;18.42;82.61;156096.72;4980096;28;20437;-78
2022/10/27 11:08:51;;;;;;;7.50;3.00;;;;;;;18.54;82.32;156128.00;4955951;28;20422;-77
2022/10/27 11:11:39;;;;;;;3.60;2.97;;;;;;;18.59;82.24;156139.72;4969825;28;20452;-78
2022/10/27 11:14:25;;;;;;;5.53;3.67;;;;;;;18.64;82.80;156154.06;4972872;28;20461;-77
2022/10/27 11:17:12;;;;;;;4.90;3.50;;;;;;;18.57;83.56;156134.53;4968125;28;20469;-77
2022/10/27 11:19:59;;;;;;;5.20;3.30;;;;;;;18.60;83.26;156143.66;4971140;28;20485;-77
2022/10/27 11:22:44;;;;;;;4.57;3.20;;;;;;;18.54;83.84;156126.69;4952135;28;20757;-77
2022/10/27 11:25:32;;;;;;;4.50;3.40;;;;;;;18.45;84.53;156103.22;4971103;28;20434;-78
2022/10/27 11:28:22;;;;;;;6.43;3.20;;;;;;;18.49;85.06;156113.66;4991948;28;20424;-78
2022/10/27 11:31:11;;;;;;;4.97;3.30;;;;;;;18.53;83.59;156124.13;4974722;28;20454;-78
2022/10/27 11:34:02;;;;;;;5.07;3.83;;;;;;;18.66;83.86;156158.00;4976203;28;20820;-78
2022/10/27 11:36:52;;;;;;;5.07;3.53;;;;;;;18.85;82.70;156207.47;4977681;28;20458;-77
2022/10/27 11:39:42;;;;;;;5.43;3.70;;;;;;;19.05;81.22;156259.59;4959495;28;20410;-78
2022/10/27 11:42:30;;;;;;;9.00;3.93;;;;;;;18.97;82.35;156238.75;4975594;28;21177;-78
2022/10/27 11:45:20;;;;;;;5.93;3.63;;;;;;;18.97;81.93;156238.75;4969196;28;20951;-78
2022/10/27 11:48:10;;;;;;;5.57;3.33;;;;;;;18.98;83.57;156241.38;4973752;28;20454;-78
2022/10/27 11:51:02;;;;;;;5.13;3.33;;;;;;;19.16;80.27;156288.28;4974284;28;20818;-78
2022/10/27 11:53:50;;;;;;;4.27;2.87;;;;;;;19.17;80.34;156290.88;4975267;28;20465;-78
2022/10/27 11:56:44;;;;;;;4.83;3.20;;;;;;;19.23;79.56;156306.53;4974576;28;20951;-78
2022/10/27 11:59:34;;;;;;;4.77;2.90;;;;;;;19.28;79.66;156319.53;4975676;28;20558;-78
2022/10/27 12:02:36;;;;;;;6.53;3.63;;;;;;;19.31;78.87;156326.06;4957092;28;20474;-78
2022/10/27 12:05:25;;;;;;;4.53;2.83;;;;;;;19.13;80.83;156280.47;4935940;29;20446;-78
2022/10/27 12:08:17;;;;;;;3.57;2.70;;;;;;;19.07;80.41;156263.50;4954835;28;20530;-78
2022/10/27 12:11:11;;;;;;;7.00;3.33;;;;;;;19.06;79.93;156262.19;4957578;29;20451;-78
2022/10/27 12:14:01;;;;;;;4.90;3.43;;;;;;;19.08;81.04;156266.13;4955959;28;20466;-77
2022/10/27 12:16:48;;;;;;;3.93;2.60;;;;;;;19.32;79.19;156330.00;4954858;28;20438;-77
2022/10/27 12:19:36;;;;;;;4.90;3.23;;;;;;;19.29;78.92;156322.16;4956803;29;20443;-78
2022/10/27 12:22:25;;;;;;;6.27;3.17;;;;;;;19.43;76.54;156357.41;4955547;29;20558;-77
2022/10/27 12:25:14;;;;;;;7.10;2.77;;;;;;;19.74;75.53;156436.91;4950147;28;20490;-77
2022/10/27 12:28:01;;;;;;;6.63;3.10;;;;;;;19.76;75.32;156442.13;4954918;28;20802;-78
2022/10/27 12:30:47;;;;;;;5.67;2.90;;;;;;;19.79;75.68;156451.28;4956209;29;20442;-78
2022/10/27 12:33:37;;;;;;;7.33;3.07;;;;;;;19.64;77.53;156410.84;4955066;29;20787;-78
2022/10/27 12:36:28;;;;;;;9.23;3.00;;;;;;;19.80;77.43;156452.59;4956415;29;20958;-78
2022/10/27 12:39:19;;;;;;;4.83;3.10;;;;;;;20.00;75.91;156506.03;4956194;28;20897;-78
2022/10/27 12:42:10;;;;;;;4.10;2.70;;;;;;;19.94;76.35;156489.06;4955191;29;20822;-78
2022/10/27 12:45:01;;;;;;;10.63;3.50;;;;;;;19.73;77.38;156434.28;4951992;28;20451;-78
2022/10/27 12:47:51;;;;;;;3.80;2.77;;;;;;;19.71;78.87;156429.09;4950205;28;20442;-78
2022/10/27 12:50:42;;;;;;;6.50;3.13;;;;;;;19.66;78.12;156416.06;4955387;29;20443;-78